Time;durP1;ratioP1;P1;durP2;ratioP2;P2;SDS_P1;SDS_P2;PMS_P1;PMS_P2;Temp;Humidity;BMP_temperature;BMP_pressure;BME280_temperature;BME280_humidity;BME280_pressure;Samples;Min_cycle;Max_cycle;Signal;HPM_P1;HPM_P2
2021/07/18 00:01:13;;;;;;;1.90;1.05;;;;;;;21.06;58.48;100706.34;10315088;28;20050;-50
2021/07/18 00:06:15;;;;;;;2.33;1.30;;;;;;;21.03;58.45;100702.13;10311642;28;20061;-49
2021/07/18 00:11:16;;;;;;;2.50;1.25;;;;;;;21.06;58.24;100695.53;10313840;28;20054;-50
2021/07/18 00:16:18;;;;;;;2.10;1.65;;;;;;;21.04;58.27;100687.59;10313913;28;20051;-50
2021/07/18 00:21:19;;;;;;;3.65;1.45;;;;;;;21.01;59.20;100683.38;10316861;28;20050;-51
2021/07/18 00:26:22;;;;;;;3.28;1.50;;;;;;;20.82;59.58;100665.78;10314719;28;20054;-51
2021/07/18 00:31:24;;;;;;;3.15;1.55;;;;;;;20.87;58.64;100686.91;10312162;28;20043;-50
2021/07/18 00:36:25;;;;;;;2.35;1.00;;;;;;;20.84;58.52;100687.25;10309501;28;20603;-49
2021/07/18 00:41:27;;;;;;;2.17;1.23;;;;;;;20.78;59.61;100699.63;10310312;28;20054;-51
2021/07/18 00:46:28;;;;;;;4.00;1.20;;;;;;;20.77;59.41;100695.22;10317931;28;20065;-51
2021/07/18 00:51:30;;;;;;;2.78;1.23;;;;;;;20.71;60.11;100693.25;10308688;28;20660;-49
2021/07/18 00:56:32;;;;;;;1.88;1.23;;;;;;;20.68;60.06;100688.19;10312374;28;20051;-50
2021/07/18 01:01:34;;;;;;;5.97;1.65;;;;;;;20.64;60.16;100690.41;10312331;28;20488;-50
2021/07/18 01:06:36;;;;;;;2.33;0.90;;;;;;;20.52;60.27;100694.50;10314378;28;20133;-50
2021/07/18 01:11:37;;;;;;;2.10;0.75;;;;;;;20.53;60.36;100696.19;10316737;28;20050;-50
2021/07/18 01:16:39;;;;;;;1.95;1.48;;;;;;;20.49;60.82;100695.72;10314990;28;20049;-50
2021/07/18 01:21:42;;;;;;;2.63;0.88;;;;;;;20.41;60.76;100687.66;10315291;28;20046;-50
2021/07/18 01:26:43;;;;;;;3.75;1.15;;;;;;;20.41;60.63;100684.13;10305637;28;20058;-50
2021/07/18 01:31:45;;;;;;;2.45;1.17;;;;;;;20.40;60.57;100696.81;10308472;28;20086;-51
2021/07/18 01:36:47;;;;;;;3.25;1.02;;;;;;;20.39;60.37;100700.50;10312866;28;20050;-51
2021/07/18 01:41:50;;;;;;;1.23;0.88;;;;;;;20.40;60.46;100707.63;10306247;28;20054;-50
2021/07/18 01:46:52;;;;;;;4.72;1.30;;;;;;;20.21;61.25;100694.53;10306505;28;20431;-51
2021/07/18 01:51:54;;;;;;;2.15;0.80;;;;;;;20.20;61.95;100693.66;10297367;28;20050;-51
2021/07/18 01:56:56;;;;;;;3.60;1.80;;;;;;;20.14;62.78;100688.97;10303759;28;20084;-50
2021/07/18 02:01:57;;;;;;;1.90;0.85;;;;;;;20.06;61.69;100699.81;10301462;28;21125;-48
2021/07/18 02:07:03;;;;;;;3.72;0.95;;;;;;;20.11;61.99;100703.66;10308069;28;20055;-49
2021/07/18 02:12:06;;;;;;;3.20;1.23;;;;;;;20.14;61.58;100697.06;10301944;28;20066;-49
2021/07/18 02:17:08;;;;;;;4.15;1.17;;;;;;;19.90;62.23;100692.63;10302483;28;20134;-49
2021/07/18 02:22:10;;;;;;;1.73;1.35;;;;;;;19.80;63.10;100705.47;10308898;28;20058;-48
2021/07/18 02:27:12;;;;;;;2.75;0.93;;;;;;;19.61;62.66;100699.41;10305682;28;20086;-55
2021/07/18 02:32:13;;;;;;;1.77;1.08;;;;;;;19.65;62.76;100695.38;10306686;28;20055;-55
2021/07/18 02:37:15;;;;;;;2.70;0.90;;;;;;;19.67;63.18;100690.63;10310577;28;20042;-56
2021/07/18 02:42:16;;;;;;;4.45;1.55;;;;;;;19.63;62.74;100689.28;10309728;28;20430;-56
2021/07/18 02:47:18;;;;;;;4.75;1.52;;;;;;;19.55;63.12;100692.00;10294022;28;20073;-56
2021/07/18 02:52:19;;;;;;;2.40;1.15;;;;;;;19.37;63.13;100679.53;10304767;28;20412;-60
2021/07/18 02:57:21;;;;;;;3.42;1.02;;;;;;;19.37;63.54;100684.94;10302474;28;20042;-56
2021/07/18 03:02:23;;;;;;;2.88;1.40;;;;;;;19.33;64.43;100688.16;10304181;28;20042;-56
2021/07/18 03:07:24;;;;;;;1.80;0.85;;;;;;;19.29;64.52;100681.41;10304986;28;20061;-56
2021/07/18 03:12:28;;;;;;;5.03;1.27;;;;;;;19.24;64.64;100684.59;10309072;28;20172;-56
2021/07/18 03:17:30;;;;;;;3.78;1.70;;;;;;;19.28;64.83;100685.13;10305544;28;20042;-56
2021/07/18 03:22:34;;;;;;;2.33;1.10;;;;;;;19.19;64.68;100677.03;10305656;28;20046;-56
2021/07/18 03:27:36;;;;;;;2.47;1.50;;;;;;;19.23;64.67;100674.81;10301342;28;20180;-55
2021/07/18 03:32:39;;;;;;;5.10;1.13;;;;;;;19.14;65.14;100686.63;10305030;28;20050;-57
2021/07/18 03:37:41;;;;;;;5.90;1.10;;;;;;;18.75;66.28;100681.88;10302636;28;20046;-57
2021/07/18 03:42:43;;;;;;;8.75;1.85;;;;;;;18.70;67.36;100677.81;10301757;28;20496;-56
2021/07/18 03:47:46;;;;;;;3.47;1.30;;;;;;;18.80;67.44;100672.25;10302878;28;20058;-56
2021/07/18 03:52:48;;;;;;;5.55;2.50;;;;;;;18.88;67.45;100687.63;10306787;28;20050;-58
2021/07/18 03:57:49;;;;;;;2.60;1.33;;;;;;;18.79;67.45;100686.75;10302733;28;20512;-56
2021/07/18 04:02:51;;;;;;;1.45;1.13;;;;;;;18.87;67.58;100684.13;10295703;28;20054;-54
2021/07/18 04:07:53;;;;;;;2.50;1.30;;;;;;;18.84;68.25;100694.34;10303654;28;20050;-56
2021/07/18 04:12:56;;;;;;;4.18;1.10;;;;;;;18.80;68.05;100701.94;10301498;28;20066;-56
2021/07/18 04:17:58;;;;;;;3.00;1.48;;;;;;;18.87;67.52;100700.28;10300908;28;20538;-56
2021/07/18 04:22:59;;;;;;;3.45;1.00;;;;;;;18.98;68.14;100701.81;10309235;28;20046;-56
2021/07/18 04:28:01;;;;;;;2.85;1.05;;;;;;;19.01;67.80;100690.69;10298682;23;20376;-62
2021/07/18 04:33:02;;;;;;;3.35;1.42;;;;;;;18.99;67.63;100698.13;10270810;28;20050;-62
2021/07/18 04:38:04;;;;;;;2.97;1.10;;;;;;;18.99;67.70;100708.91;10271349;28;20047;-63
2021/07/18 04:43:06;;;;;;;2.25;1.45;;;;;;;19.00;68.08;100705.19;10271761;28;20055;-61
2021/07/18 04:48:07;;;;;;;4.45;1.17;;;;;;;19.05;68.49;100719.03;10273500;28;20695;-61
2021/07/18 04:53:09;;;;;;;2.03;1.10;;;;;;;19.13;67.64;100717.34;10274906;28;20094;-61
2021/07/18 04:58:10;;;;;;;2.05;1.25;;;;;;;19.14;67.41;100716.31;10273391;28;20050;-61
2021/07/18 05:03:12;;;;;;;3.60;1.20;;;;;;;19.17;67.80;100721.38;10271264;28;20043;-63
2021/07/18 05:08:14;;;;;;;3.88;1.13;;;;;;;19.22;67.45;100727.94;10277505;28;20035;-62
2021/07/18 05:13:15;;;;;;;1.92;1.05;;;;;;;19.20;67.61;100727.28;10271132;28;20047;-62
2021/07/18 05:18:17;;;;;;;2.63;0.90;;;;;;;19.20;68.49;100739.91;10268825;28;20142;-62
2021/07/18 05:23:19;;;;;;;1.80;1.10;;;;;;;19.25;67.86;100732.19;10269714;28;20548;-62
2021/07/18 05:28:21;;;;;;;6.88;1.83;;;;;;;19.34;67.56;100733.84;10272884;28;20051;-62
2021/07/18 05:33:23;;;;;;;2.17;1.02;;;;;;;19.38;67.48;100734.34;10267695;28;20058;-62
2021/07/18 05:38:24;;;;;;;6.63;2.03;;;;;;;19.36;67.87;100731.81;10261927;28;20059;-62
2021/07/18 05:43:33;;;;;;;2.60;1.00;;;;;;;19.41;67.78;100737.56;10265804;28;20137;-62
2021/07/18 05:48:35;;;;;;;5.00;1.33;;;;;;;19.54;67.31;100744.31;10266890;28;20051;-62
2021/07/18 05:53:36;;;;;;;1.52;0.95;;;;;;;19.69;67.20;100750.69;10262553;28;20058;-62
2021/07/18 05:58:38;;;;;;;3.25;0.85;;;;;;;19.90;66.97;100749.34;10262474;28;20065;-63
2021/07/18 06:03:39;;;;;;;3.17;1.33;;;;;;;20.04;65.98;100751.34;10268739;28;20050;-63
2021/07/18 06:08:41;;;;;;;2.92;1.02;;;;;;;19.98;66.03;100751.19;10262263;28;20069;-63
2021/07/18 06:13:42;;;;;;;5.00;1.95;;;;;;;20.13;65.77;100750.28;10247385;28;20070;-63
2021/07/18 06:18:44;;;;;;;4.45;1.00;;;;;;;20.21;64.28;100762.09;10247131;28;20293;-63
2021/07/18 06:23:45;;;;;;;1.90;1.05;;;;;;;20.20;65.35;100755.84;10247081;28;20054;-62
2021/07/18 06:28:47;;;;;;;2.10;0.88;;;;;;;20.40;64.99;100761.69;10250482;28;20133;-62
2021/07/18 06:33:49;;;;;;;2.42;1.00;;;;;;;20.54;64.12;100762.78;10250366;28;20427;-62
2021/07/18 06:38:50;;;;;;;2.22;0.82;;;;;;;20.78;63.28;100764.56;10247389;28;20517;-62
2021/07/18 06:43:52;;;;;;;3.10;0.88;;;;;;;20.85;60.91;100761.97;10245920;28;20051;-62
2021/07/18 06:49:03;;;;;;;3.53;0.55;;;;;;;21.01;60.50;100761.84;10248783;28;20047;-62
2021/07/18 06:54:04;;;;;;;2.95;0.90;;;;;;;21.12;59.54;100754.34;10244237;28;20059;-62
2021/07/18 06:59:06;;;;;;;2.85;0.80;;;;;;;21.31;58.99;100763.84;10248496;28;20109;-62
2021/07/18 07:04:08;;;;;;;1.70;0.75;;;;;;;21.50;58.15;100757.97;10248065;28;20074;-62
2021/07/18 07:09:10;;;;;;;2.33;0.60;;;;;;;21.65;57.34;100747.16;10247798;28;20059;-62
2021/07/18 07:14:11;;;;;;;2.95;0.80;;;;;;;21.74;56.33;100760.59;10245054;28;20397;-62
2021/07/18 07:19:13;;;;;;;1.88;0.50;;;;;;;21.89;56.03;100759.63;10236027;28;20415;-62
2021/07/18 07:24:15;;;;;;;3.20;0.77;;;;;;;22.08;56.12;100760.06;10244921;28;20053;-62
2021/07/18 07:29:16;;;;;;;2.03;0.60;;;;;;;22.24;55.03;100749.03;10242882;28;20043;-62
2021/07/18 07:34:18;;;;;;;1.52;0.73;;;;;;;22.46;54.82;100745.59;10251247;28;20492;-62
2021/07/18 07:39:19;;;;;;;2.47;0.65;;;;;;;22.56;54.83;100746.13;10248880;28;20046;-62
2021/07/18 07:44:21;;;;;;;2.90;0.50;;;;;;;22.67;53.86;100744.78;10244985;28;20415;-62
2021/07/18 07:49:23;;;;;;;3.60;0.82;;;;;;;22.61;54.69;100754.56;10245196;28;20368;-62
2021/07/18 07:54:24;;;;;;;3.28;0.70;;;;;;;23.00;53.86;100745.16;10236908;28;20070;-62
2021/07/18 07:59:26;;;;;;;4.60;0.85;;;;;;;22.98;53.10;100738.25;10242265;28;20403;-62
2021/07/18 08:04:28;;;;;;;2.50;0.90;;;;;;;22.76;54.36;100749.09;10244710;28;20058;-62
2021/07/18 08:09:30;;;;;;;2.03;0.60;;;;;;;23.11;54.60;100738.41;10246339;28;20065;-62
2021/07/18 08:14:31;;;;;;;1.30;0.50;;;;;;;23.53;53.07;100736.69;10250241;28;20047;-62
2021/07/18 08:19:33;;;;;;;1.80;0.95;;;;;;;23.68;51.84;100738.47;10250726;28;20973;-64
2021/07/18 08:24:36;;;;;;;2.83;1.00;;;;;;;23.65;53.36;100729.66;10247359;28;20063;-64
2021/07/18 08:29:37;;;;;;;1.05;0.57;;;;;;;24.14;51.55;100730.63;10253819;28;20782;-64
2021/07/18 08:34:39;;;;;;;3.25;0.82;;;;;;;24.43;50.07;100727.81;10250463;28;20055;-64
2021/07/18 08:39:40;;;;;;;1.95;0.98;;;;;;;24.55;49.57;100720.75;10250928;28;20055;-64
2021/07/18 08:51:05;;;;;;;1.10;0.45;;;;;;;24.68;48.69;100728.13;10246538;28;21638;-64
2021/07/18 08:56:07;;;;;;;1.52;0.45;;;;;;;24.95;48.89;100725.47;10249245;28;20070;-64
2021/07/18 09:01:12;;;;;;;1.80;1.05;;;;;;;25.35;48.20;100722.81;10241602;28;20473;-65
2021/07/18 09:06:13;;;;;;;3.08;0.75;;;;;;;25.51;47.44;100713.38;10241431;28;20370;-64
2021/07/18 09:11:24;;;;;;;0.90;0.60;;;;;;;25.80;46.57;100714.78;10229638;28;20469;-64
2021/07/18 09:16:28;;;;;;;1.33;0.60;;;;;;;26.21;46.45;100710.94;10225114;28;20062;-64
2021/07/18 09:21:30;;;;;;;2.80;0.65;;;;;;;26.00;46.12;100709.31;10239365;28;20477;-65
2021/07/18 09:26:31;;;;;;;1.27;0.57;;;;;;;25.68;46.93;100709.13;10248028;28;20059;-64
2021/07/18 09:31:34;;;;;;;2.03;0.63;;;;;;;26.17;46.09;100704.22;10245582;28;20055;-65
2021/07/18 09:36:37;;;;;;;1.15;0.50;;;;;;;26.78;44.10;100694.69;10245288;28;20477;-64
2021/07/18 09:41:39;;;;;;;1.80;0.75;;;;;;;26.94;43.51;100695.22;10236883;28;20437;-64
2021/07/18 09:46:41;;;;;;;2.67;0.52;;;;;;;27.32;43.88;100694.28;10243639;28;20051;-65
2021/07/18 09:51:45;;;;;;;0.93;0.40;;;;;;;27.01;44.15;100685.09;10244398;28;21022;-64
2021/07/18 09:56:46;;;;;;;1.30;0.70;;;;;;;27.04;44.29;100684.63;10247729;28;20055;-65
2021/07/18 10:01:54;;;;;;;1.83;0.60;;;;;;;27.39;43.77;100678.69;10246220;28;20070;-65
2021/07/18 10:07:07;;;;;;;1.20;0.50;;;;;;;28.14;41.96;100691.38;10236243;28;20058;-65
2021/07/18 10:12:09;;;;;;;1.50;0.70;;;;;;;28.63;40.70;100680.44;10241929;28;20054;-64
2021/07/18 10:17:11;;;;;;;1.08;0.30;;;;;;;29.11;40.03;100670.41;10243439;28;20043;-65
2021/07/18 10:22:13;;;;;;;1.08;0.30;;;;;;;29.41;38.51;100666.75;10241761;28;20527;-65
2021/07/18 10:27:20;;;;;;;1.73;0.57;;;;;;;29.54;38.15;100665.66;10242049;28;20043;-65
2021/07/18 10:32:25;;;;;;;2.05;0.80;;;;;;;29.82;38.01;100659.47;10240512;28;20066;-65
2021/07/18 10:37:38;;;;;;;1.92;0.57;;;;;;;30.07;37.30;100666.56;10244501;28;22392;-65
2021/07/18 10:42:40;;;;;;;2.88;0.40;;;;;;;30.11;37.61;100660.31;10253854;23;20046;-57
2021/07/18 10:47:55;;;;;;;;;;;;;;;30.32;37.50;100652.50;10274692;28;20042;-57
2021/07/18 10:53:14;;;;;;;0.80;0.40;;;;;;;30.92;36.00;100647.56;10292301;28;19926;-57
2021/07/18 10:58:38;;;;;;;2.83;1.15;;;;;;;30.54;36.43;100646.34;10292275;28;20737;-57
2021/07/18 11:03:41;;;;;;;1.45;0.55;;;;;;;30.46;36.71;100644.81;10294105;28;20069;-57
2021/07/18 11:09:13;;;;;;;1.23;0.57;;;;;;;29.95;38.34;100641.88;10293601;28;20514;-58
2021/07/18 11:14:25;;;;;;;3.00;0.57;;;;;;;30.61;37.02;100631.38;10290796;28;20069;-57
2021/07/18 11:19:39;;;;;;;1.75;0.80;;;;;;;30.98;36.61;100635.56;10293509;28;20061;-57
2021/07/18 11:24:57;;;;;;;1.38;0.50;;;;;;;31.28;35.30;100615.97;10291457;28;20054;-56
2021/07/18 11:30:00;;;;;;;3.10;0.63;;;;;;;30.72;36.70;100618.66;10292787;28;20062;-56
2021/07/18 11:35:03;;;;;;;3.67;0.98;;;;;;;31.22;35.55;100619.72;10288552;28;20144;-56
2021/07/18 11:40:09;;;;;;;2.78;0.82;;;;;;;30.96;35.74;100622.06;10292602;28;20065;-57
2021/07/18 11:45:14;;;;;;;2.75;0.60;;;;;;;30.89;36.38;100615.91;10291225;28;20051;-56
2021/07/18 11:50:16;;;;;;;1.95;0.80;;;;;;;30.58;36.03;100607.16;10297573;28;20050;-56
2021/07/18 11:55:18;;;;;;;1.70;0.63;;;;;;;30.97;36.70;100593.50;10299561;28;20061;-56
2021/07/18 12:00:19;;;;;;;1.42;0.65;;;;;;;30.93;36.48;100588.75;10306801;28;20062;-56
2021/07/18 12:05:21;;;;;;;2.40;1.05;;;;;;;30.71;35.99;100580.44;10301956;28;20063;-56
2021/07/18 12:10:23;;;;;;;1.42;0.75;;;;;;;30.33;36.69;100578.13;10302171;28;20038;-56
2021/07/18 12:15:25;;;;;;;1.23;0.70;;;;;;;30.51;36.24;100565.28;10299254;28;20054;-56
2021/07/18 12:20:26;;;;;;;1.10;0.60;;;;;;;30.58;36.97;100565.97;10296648;28;20101;-57
2021/07/18 12:25:28;;;;;;;1.15;0.75;;;;;;;30.45;36.78;100560.78;10296018;28;20053;-57
2021/07/18 12:30:29;;;;;;;1.67;0.70;;;;;;;30.82;36.61;100558.38;10296580;28;20494;-57
2021/07/18 12:35:31;;;;;;;0.90;0.63;;;;;;;31.04;35.53;100562.28;10300538;28;20069;-57
2021/07/18 12:40:33;;;;;;;1.35;0.68;;;;;;;31.05;34.67;100553.78;10296962;28;20073;-57
2021/07/18 12:45:35;;;;;;;1.70;0.98;;;;;;;30.98;35.07;100558.59;10297621;28;20103;-56
2021/07/18 12:50:38;;;;;;;1.08;0.70;;;;;;;31.20;34.36;100553.19;10297554;28;20046;-57
2021/07/18 12:55:48;;;;;;;1.85;0.85;;;;;;;31.25;34.09;100539.50;10298933;28;20050;-56
2021/07/18 13:01:13;;;;;;;2.60;1.20;;;;;;;31.09;34.15;100540.38;10296614;28;20061;-56
2021/07/18 13:06:20;;;;;;;1.02;0.35;;;;;;;30.89;34.73;100533.47;10296576;28;20058;-56
2021/07/18 13:11:44;;;;;;;1.27;0.60;;;;;;;30.90;34.62;100529.63;10296082;28;20151;-56
2021/07/18 13:16:46;;;;;;;3.15;1.05;;;;;;;31.06;34.29;100510.63;10296001;28;20483;-56
2021/07/18 13:22:00;;;;;;;0.88;0.70;;;;;;;31.18;33.95;100519.59;10299782;28;20101;-56
2021/07/18 13:27:08;;;;;;;0.90;0.63;;;;;;;31.19;33.91;100515.75;10298026;28;20150;-56
2021/07/18 13:32:12;;;;;;;1.00;0.70;;;;;;;31.06;32.73;100502.38;10296365;28;20057;-56
2021/07/18 13:37:14;;;;;;;2.10;0.90;;;;;;;31.00;33.14;100505.09;10293903;28;20095;-55
2021/07/18 13:42:15;;;;;;;2.42;0.88;;;;;;;30.62;34.16;100492.94;10292371;28;20054;-55
2021/07/18 13:47:17;;;;;;;1.50;0.60;;;;;;;30.58;33.11;100494.56;10297331;28;20058;-55
2021/07/18 13:52:19;;;;;;;0.95;0.70;;;;;;;30.64;32.92;100492.69;10296725;28;20057;-55
2021/07/18 13:57:22;;;;;;;1.23;0.80;;;;;;;30.63;32.66;100494.63;10294919;28;20057;-55
2021/07/18 14:02:23;;;;;;;1.40;0.80;;;;;;;30.56;32.22;100480.22;10294374;28;20046;-57
2021/07/18 14:07:25;;;;;;;2.00;0.90;;;;;;;30.49;32.60;100488.63;10293237;28;20077;-55
2021/07/18 14:12:27;;;;;;;2.67;0.98;;;;;;;30.45;31.81;100483.91;10267548;28;20058;-56
2021/07/18 14:17:28;;;;;;;1.25;0.77;;;;;;;30.27;32.48;100477.53;10274647;28;20055;-56
2021/07/18 14:22:30;;;;;;;1.00;0.80;;;;;;;30.26;32.11;100486.03;10281527;28;20454;-56
2021/07/18 14:27:32;;;;;;;1.13;0.77;;;;;;;30.19;32.57;100479.84;10281037;28;20054;-55
2021/07/18 14:32:34;;;;;;;2.85;1.08;;;;;;;30.07;31.08;100482.66;10284795;28;20055;-56
2021/07/18 14:37:35;;;;;;;;;;;;;;;29.96;31.27;100466.03;10283834;28;20089;-56
2021/07/18 14:42:37;;;;;;;2.78;1.10;;;;;;;29.92;32.17;100467.63;10285134;28;19937;-56
2021/07/18 14:47:40;;;;;;;1.92;0.95;;;;;;;29.87;32.70;100467.50;10287192;28;20475;-56
2021/07/18 14:52:42;;;;;;;1.30;1.20;;;;;;;29.82;32.43;100445.47;10284736;28;20046;-55
2021/07/18 14:57:44;;;;;;;1.40;1.00;;;;;;;29.65;33.26;100452.81;10282069;28;20052;-56
2021/07/18 15:02:46;;;;;;;5.35;1.30;;;;;;;29.68;32.78;100452.31;10286720;28;20054;-56
2021/07/18 15:07:48;;;;;;;1.75;0.77;;;;;;;29.48;33.50;100453.59;10290173;28;20085;-56
2021/07/18 15:12:49;;;;;;;1.23;1.07;;;;;;;29.53;34.63;100450.97;10266945;28;20055;-56
2021/07/18 15:17:51;;;;;;;0.97;0.87;;;;;;;29.52;35.15;100438.31;10278607;28;20050;-56
2021/07/18 15:22:52;;;;;;;1.33;0.80;;;;;;;29.47;35.04;100438.22;10277605;28;20092;-56
2021/07/18 15:27:54;;;;;;;2.37;1.27;;;;;;;29.41;35.45;100436.44;10279158;28;20060;-57
2021/07/18 15:32:56;;;;;;;1.80;1.37;;;;;;;29.40;35.53;100434.78;10281914;28;20073;-57
2021/07/18 15:37:57;;;;;;;2.33;2.10;;;;;;;29.44;36.14;100430.50;10281821;28;20077;-56
2021/07/18 15:42:59;;;;;;;1.30;1.20;;;;;;;29.46;36.35;100422.03;10279274;28;20065;-57
2021/07/18 15:48:00;;;;;;;3.23;1.13;;;;;;;29.46;36.79;100422.84;10278928;28;20058;-57
2021/07/18 15:53:02;;;;;;;4.15;1.63;;;;;;;29.50;36.92;100413.06;10277845;28;20129;-57
2021/07/18 15:58:04;;;;;;;1.67;1.40;;;;;;;29.37;36.93;100403.22;10276584;28;20404;-57
2021/07/18 16:03:05;;;;;;;2.67;1.55;;;;;;;29.13;37.67;100369.56;10273478;28;20059;-56
2021/07/18 16:08:07;;;;;;;1.25;1.15;;;;;;;29.44;38.03;100408.56;10279829;28;20518;-57
2021/07/18 16:13:09;;;;;;;1.63;1.53;;;;;;;29.44;38.04;100397.59;10280751;28;20073;-56
2021/07/18 16:18:11;;;;;;;1.70;1.60;;;;;;;29.34;38.40;100402.88;10279797;28;20050;-57
2021/07/18 16:23:13;;;;;;;;;;;;;;;29.30;38.59;100401.69;10273671;28;20206;-57
2021/07/18 16:28:15;;;;;;;1.50;1.40;;;;;;;29.22;39.09;100387.28;10277383;28;19929;-56
2021/07/18 16:33:20;;;;;;;3.00;1.60;;;;;;;29.15;39.69;100389.31;10283093;28;20067;-56
2021/07/18 16:38:22;;;;;;;2.97;2.60;;;;;;;29.03;39.79;100380.31;10283024;28;20061;-57
2021/07/18 16:43:23;;;;;;;2.45;1.60;;;;;;;29.17;39.69;100392.66;10301024;23;20332;-63
2021/07/18 16:48:25;;;;;;;2.27;2.03;;;;;;;29.23;38.69;100396.34;10254075;28;20062;-64
2021/07/18 16:53:26;;;;;;;2.83;1.73;;;;;;;29.19;39.04;100395.97;10256900;28;20047;-64
2021/07/18 16:58:30;;;;;;;3.30;2.07;;;;;;;29.19;39.39;100400.63;10259100;28;20042;-63
2021/07/18 17:04:25;;;;;;;2.63;1.42;;;;;;;29.16;39.23;100401.94;11020225;22;20062;-63
2021/07/18 17:09:26;;;;;;;3.67;2.25;;;;;;;29.19;39.43;100409.69;10222325;28;20054;-63
2021/07/18 17:14:28;;;;;;;2.67;1.57;;;;;;;29.22;39.64;100395.53;10204505;28;20138;-63
2021/07/18 17:19:30;;;;;;;2.25;2.00;;;;;;;29.27;39.69;100403.00;10229876;23;20407;-58
2021/07/18 17:24:31;;;;;;;2.20;2.00;;;;;;;29.20;39.64;100400.38;10261910;28;20050;-57
2021/07/18 17:29:33;;;;;;;3.30;2.40;;;;;;;29.18;39.96;100409.94;10268369;28;20822;-56
2021/07/18 17:34:37;;;;;;;2.53;1.48;;;;;;;29.02;39.29;100409.63;10253802;28;20544;-57
2021/07/18 17:39:39;;;;;;;3.88;2.75;;;;;;;28.88;38.60;100403.56;10262135;28;20981;-56
2021/07/18 17:44:40;;;;;;;2.75;2.05;;;;;;;28.88;39.45;100410.94;10268038;28;20530;-56
2021/07/18 17:49:42;;;;;;;2.83;1.60;;;;;;;28.89;39.83;100424.41;10269962;28;20050;-58
2021/07/18 17:54:44;;;;;;;2.33;1.70;;;;;;;28.85;39.87;100422.41;10260171;28;20065;-57
2021/07/18 17:59:45;;;;;;;2.28;1.77;;;;;;;28.78;39.87;100428.00;10264066;28;20496;-56
2021/07/18 18:04:47;;;;;;;1.80;1.30;;;;;;;28.57;39.64;100422.03;10261680;28;20050;-56
2021/07/18 18:09:49;;;;;;;2.23;1.27;;;;;;;28.39;40.25;100419.44;10256043;28;20708;-57
2021/07/18 18:14:50;;;;;;;3.27;1.60;;;;;;;28.25;41.04;100424.28;10255630;28;20057;-57
2021/07/18 18:19:52;;;;;;;2.03;1.60;;;;;;;28.08;41.43;100424.16;10255030;28;20081;-56
2021/07/18 18:24:53;;;;;;;1.40;1.30;;;;;;;27.96;41.88;100424.13;10251586;28;20062;-57
2021/07/18 18:29:55;;;;;;;2.70;1.77;;;;;;;27.77;42.05;100428.78;10271489;28;20065;-56
2021/07/18 18:34:57;;;;;;;2.95;1.10;;;;;;;27.60;42.40;100427.81;10256526;28;20070;-57
2021/07/18 18:39:58;;;;;;;2.30;1.30;;;;;;;27.45;42.54;100420.84;10257575;28;20058;-56
2021/07/18 18:45:00;;;;;;;2.47;1.50;;;;;;;27.40;43.11;100430.78;10269096;28;20062;-58
2021/07/18 18:50:03;;;;;;;2.53;1.50;;;;;;;27.30;43.71;100429.41;10267869;28;20066;-57
2021/07/18 18:55:06;;;;;;;;;;;;;;;27.09;44.15;100441.66;10269648;28;20058;-56
2021/07/18 19:00:10;;;;;;;3.40;1.75;;;;;;;26.93;44.03;100434.94;10259212;28;19921;-56
2021/07/18 19:05:11;;;;;;;5.70;2.10;;;;;;;26.93;44.62;100455.91;10264472;28;20487;-57
2021/07/18 19:10:13;;;;;;;5.78;4.03;;;;;;;26.86;45.01;100460.63;10259898;28;20050;-57
2021/07/18 19:15:15;;;;;;;3.90;2.63;;;;;;;26.70;45.27;100457.41;10260957;28;20058;-57
2021/07/18 19:20:17;;;;;;;4.22;1.88;;;;;;;26.61;45.50;100464.19;10262758;28;20055;-56
2021/07/18 19:25:19;;;;;;;3.53;1.80;;;;;;;26.46;46.04;100461.81;10263384;28;20070;-57
2021/07/18 19:30:20;;;;;;;2.58;1.80;;;;;;;26.38;46.50;100478.50;10268366;28;20820;-56
2021/07/18 19:35:26;;;;;;;3.95;1.90;;;;;;;26.23;47.03;100473.34;10266214;28;20039;-56
2021/07/18 19:40:27;;;;;;;2.92;1.60;;;;;;;26.11;47.31;100474.06;10264829;28;20061;-57
2021/07/18 19:45:29;;;;;;;2.47;1.90;;;;;;;25.81;48.00;100473.81;10268162;28;20061;-61
2021/07/18 19:50:30;;;;;;;5.68;2.50;;;;;;;25.56;48.56;100490.91;10264240;28;20404;-58
2021/07/18 19:55:32;;;;;;;5.72;1.80;;;;;;;25.47;49.07;100502.28;10266286;28;20131;-56
2021/07/18 20:00:35;;;;;;;3.25;1.45;;;;;;;25.31;49.56;100504.44;10252108;28;20046;-56
2021/07/18 20:05:36;;;;;;;4.63;1.63;;;;;;;25.37;49.77;100500.00;10264789;28;24910;-56
2021/07/18 20:10:39;;;;;;;5.88;1.80;;;;;;;25.38;49.62;100507.97;10262505;28;20054;-57
2021/07/18 20:15:41;;;;;;;4.57;2.30;;;;;;;25.38;49.80;100510.69;10270348;28;20539;-58
2021/07/18 20:20:42;;;;;;;3.35;1.90;;;;;;;25.23;49.94;100518.25;10269027;28;20370;-57
2021/07/18 20:25:44;;;;;;;4.05;1.85;;;;;;;24.93;50.68;100507.84;10269850;28;20054;-58
2021/07/18 20:30:46;;;;;;;7.28;1.45;;;;;;;24.87;51.46;100519.59;10254333;28;20051;-56
2021/07/18 20:35:47;;;;;;;2.25;1.60;;;;;;;24.91;51.48;100520.84;10267434;28;20046;-58
2021/07/18 20:40:49;;;;;;;4.57;1.50;;;;;;;24.88;51.20;100526.72;10268379;28;20046;-56
2021/07/18 20:45:50;;;;;;;4.25;1.60;;;;;;;24.77;51.15;100527.34;10257600;28;20065;-57
2021/07/18 20:50:52;;;;;;;2.42;1.60;;;;;;;24.52;51.91;100525.25;10259346;28;20058;-56
2021/07/18 20:55:54;;;;;;;4.22;1.95;;;;;;;24.38;52.35;100518.09;10258229;28;20711;-56
2021/07/18 21:00:55;;;;;;;5.97;2.78;;;;;;;24.32;52.20;100506.16;10240831;28;20482;-58
2021/07/18 21:05:57;;;;;;;3.97;1.58;;;;;;;24.26;52.53;100505.13;10250832;28;20133;-57
2021/07/18 21:10:59;;;;;;;4.05;2.22;;;;;;;24.14;53.25;100499.47;10286193;28;20078;-57
2021/07/18 21:16:11;;;;;;;3.45;1.77;;;;;;;24.19;52.76;100512.44;10285051;28;20618;-56
2021/07/18 21:21:13;;;;;;;2.95;2.20;;;;;;;24.11;53.68;100509.91;10287125;28;20091;-56
2021/07/18 21:26:15;;;;;;;3.67;1.98;;;;;;;24.20;53.32;100518.72;10285986;28;20515;-56
2021/07/18 21:31:17;;;;;;;3.60;2.17;;;;;;;24.21;53.08;100525.84;10275431;28;20170;-57
2021/07/18 21:36:18;;;;;;;4.95;1.88;;;;;;;24.19;52.73;100528.75;10273533;28;20360;-57
2021/07/18 21:41:20;;;;;;;3.80;2.67;;;;;;;24.08;52.90;100504.88;10274124;28;20362;-57
2021/07/18 21:46:22;;;;;;;3.78;1.90;;;;;;;23.98;53.48;100527.03;10274260;28;20627;-57
2021/07/18 21:51:23;;;;;;;3.38;1.30;;;;;;;23.86;53.74;100515.94;10282453;28;20100;-56
2021/07/18 21:56:25;;;;;;;5.40;2.03;;;;;;;23.65;54.44;100512.28;10297049;28;20423;-57
2021/07/18 22:01:26;;;;;;;4.78;1.80;;;;;;;23.70;54.48;100517.09;10296550;28;20554;-57
2021/07/18 22:06:29;;;;;;;2.92;1.50;;;;;;;23.73;54.39;100515.84;10297412;28;20071;-56
2021/07/18 22:11:31;;;;;;;2.63;1.10;;;;;;;23.67;55.08;100513.94;10290395;28;20129;-61
2021/07/18 22:16:32;;;;;;;3.40;1.85;;;;;;;23.38;55.48;100516.75;10296816;28;20046;-59
2021/07/18 22:21:36;;;;;;;2.58;1.60;;;;;;;23.25;55.40;100513.97;10297322;28;20050;-57
2021/07/18 22:26:39;;;;;;;6.00;1.92;;;;;;;23.14;56.48;100519.97;10290769;28;20049;-57
2021/07/18 22:31:41;;;;;;;3.03;1.67;;;;;;;23.27;56.15;100517.34;10264126;28;20070;-58
2021/07/18 22:36:43;;;;;;;2.10;1.40;;;;;;;23.30;56.19;100509.63;10293993;28;20169;-58
2021/07/18 22:41:45;;;;;;;2.40;1.67;;;;;;;23.36;55.86;100518.00;10296984;28;20050;-57
2021/07/18 22:46:46;;;;;;;3.75;1.73;;;;;;;23.27;55.97;100507.31;10291058;28;20054;-56
2021/07/18 22:51:48;;;;;;;3.92;2.05;;;;;;;23.39;55.60;100517.59;10291856;28;20070;-57
2021/07/18 22:56:50;;;;;;;3.67;1.90;;;;;;;23.35;55.85;100516.34;10301231;28;20046;-55
2021/07/18 23:01:52;;;;;;;3.60;1.27;;;;;;;23.30;55.51;100520.47;10286270;28;20061;-55
2021/07/18 23:06:55;;;;;;;3.17;1.80;;;;;;;23.25;56.12;100517.50;10261102;28;20054;-56
2021/07/18 23:11:56;;;;;;;;;;;;;;;23.22;55.91;100517.91;10287835;28;20054;-56
2021/07/18 23:16:58;;;;;;;4.50;1.98;;;;;;;23.16;55.98;100507.84;10293828;28;20443;-56
2021/07/18 23:22:00;;;;;;;4.18;1.80;;;;;;;23.11;55.86;100497.59;10287340;28;20137;-57